sensor_id;sensor_type;location;lat;lon;timestamp;P1;durP1;ratioP1;P2;durP2;ratioP2
35646;SDS011;28680;45.642;13.756;2024-01-27T00:01:50;90.25;;;46.10;;
35646;SDS011;28680;45.642;13.756;2024-01-27T00:04:15;85.20;;;45.92;;
35646;SDS011;28680;45.642;13.756;2024-01-27T00:06:41;94.57;;;47.38;;
35646;SDS011;28680;45.642;13.756;2024-01-27T00:09:07;91.53;;;46.03;;
35646;SDS011;28680;45.642;13.756;2024-01-27T00:11:33;86.00;;;44.78;;
35646;SDS011;28680;45.642;13.756;2024-01-27T00:13:59;90.43;;;45.70;;
35646;SDS011;28680;45.642;13.756;2024-01-27T00:16:25;86.60;;;45.50;;
35646;SDS011;28680;45.642;13.756;2024-01-27T00:18:51;84.40;;;45.97;;
35646;SDS011;28680;45.642;13.756;2024-01-27T00:21:16;87.72;;;46.72;;
35646;SDS011;28680;45.642;13.756;2024-01-27T00:23:42;81.78;;;41.75;;
35646;SDS011;28680;45.642;13.756;2024-01-27T00:26:08;81.65;;;43.13;;
35646;SDS011;28680;45.642;13.756;2024-01-27T00:28:34;84.05;;;43.35;;
35646;SDS011;28680;45.642;13.756;2024-01-27T00:30:59;84.85;;;44.95;;
35646;SDS011;28680;45.642;13.756;2024-01-27T00:33:25;80.70;;;43.67;;
35646;SDS011;28680;45.642;13.756;2024-01-27T00:35:51;87.32;;;44.67;;
35646;SDS011;28680;45.642;13.756;2024-01-27T00:38:17;91.07;;;46.25;;
35646;SDS011;28680;45.642;13.756;2024-01-27T00:40:43;91.35;;;46.88;;
35646;SDS011;28680;45.642;13.756;2024-01-27T00:43:09;85.25;;;43.83;;
35646;SDS011;28680;45.642;13.756;2024-01-27T00:45:34;81.47;;;43.28;;
35646;SDS011;28680;45.642;13.756;2024-01-27T00:48:00;77.63;;;42.47;;
35646;SDS011;28680;45.642;13.756;2024-01-27T00:50:26;82.10;;;40.65;;
35646;SDS011;28680;45.642;13.756;2024-01-27T00:52:52;70.75;;;37.03;;
35646;SDS011;28680;45.642;13.756;2024-01-27T00:55:18;64.25;;;34.45;;
35646;SDS011;28680;45.642;13.756;2024-01-27T00:57:43;69.05;;;36.13;;
35646;SDS011;28680;45.642;13.756;2024-01-27T01:00:09;66.55;;;35.45;;
35646;SDS011;28680;45.642;13.756;2024-01-27T01:02:36;74.30;;;36.28;;
35646;SDS011;28680;45.642;13.756;2024-01-27T01:05:03;68.43;;;37.25;;
35646;SDS011;28680;45.642;13.756;2024-01-27T01:07:32;73.93;;;37.40;;
35646;SDS011;28680;45.642;13.756;2024-01-27T01:09:58;77.88;;;37.17;;
35646;SDS011;28680;45.642;13.756;2024-01-27T01:12:24;68.68;;;35.85;;
35646;SDS011;28680;45.642;13.756;2024-01-27T01:14:53;71.93;;;36.22;;
35646;SDS011;28680;45.642;13.756;2024-01-27T01:17:19;69.20;;;36.67;;
35646;SDS011;28680;45.642;13.756;2024-01-27T01:19:45;68.03;;;36.85;;
35646;SDS011;28680;45.642;13.756;2024-01-27T01:22:10;72.03;;;37.20;;
35646;SDS011;28680;45.642;13.756;2024-01-27T01:24:36;82.15;;;39.10;;
35646;SDS011;28680;45.642;13.756;2024-01-27T01:27:02;72.35;;;38.75;;
35646;SDS011;28680;45.642;13.756;2024-01-27T01:29:28;76.30;;;38.70;;
35646;SDS011;28680;45.642;13.756;2024-01-27T01:31:54;81.72;;;41.28;;
35646;SDS011;28680;45.642;13.756;2024-01-27T01:34:20;74.90;;;40.38;;
35646;SDS011;28680;45.642;13.756;2024-01-27T01:36:46;72.90;;;40.35;;
35646;SDS011;28680;45.642;13.756;2024-01-27T01:39:13;69.88;;;38.17;;
35646;SDS011;28680;45.642;13.756;2024-01-27T01:41:39;71.60;;;37.58;;
35646;SDS011;28680;45.642;13.756;2024-01-27T01:44:06;74.75;;;38.42;;
35646;SDS011;28680;45.642;13.756;2024-01-27T01:46:32;76.60;;;39.65;;
35646;SDS011;28680;45.642;13.756;2024-01-27T01:48:59;76.53;;;41.20;;
35646;SDS011;28680;45.642;13.756;2024-01-27T01:51:26;78.07;;;40.97;;
35646;SDS011;28680;45.642;13.756;2024-01-27T01:53:52;71.72;;;37.85;;
35646;SDS011;28680;45.642;13.756;2024-01-27T01:56:23;71.55;;;37.95;;
35646;SDS011;28680;45.642;13.756;2024-01-27T01:58:50;71.90;;;37.38;;
35646;SDS011;28680;45.642;13.756;2024-01-27T02:01:19;70.30;;;37.25;;
35646;SDS011;28680;45.642;13.756;2024-01-27T02:03:53;71.72;;;37.83;;
35646;SDS011;28680;45.642;13.756;2024-01-27T02:06:18;69.10;;;38.35;;
35646;SDS011;28680;45.642;13.756;2024-01-27T02:08:46;73.55;;;37.95;;
35646;SDS011;28680;45.642;13.756;2024-01-27T02:11:12;72.82;;;37.58;;
35646;SDS011;28680;45.642;13.756;2024-01-27T02:13:38;68.18;;;36.70;;
35646;SDS011;28680;45.642;13.756;2024-01-27T02:16:04;65.95;;;35.95;;
35646;SDS011;28680;45.642;13.756;2024-01-27T02:18:30;70.25;;;36.58;;
35646;SDS011;28680;45.642;13.756;2024-01-27T02:20:55;74.05;;;37.95;;
35646;SDS011;28680;45.642;13.756;2024-01-27T02:23:21;69.60;;;35.53;;
35646;SDS011;28680;45.642;13.756;2024-01-27T02:25:47;69.55;;;36.65;;
35646;SDS011;28680;45.642;13.756;2024-01-27T02:28:13;66.10;;;37.10;;
35646;SDS011;28680;45.642;13.756;2024-01-27T02:30:39;67.47;;;36.95;;
35646;SDS011;28680;45.642;13.756;2024-01-27T02:33:05;64.18;;;34.92;;
35646;SDS011;28680;45.642;13.756;2024-01-27T02:35:31;66.85;;;35.85;;
35646;SDS011;28680;45.642;13.756;2024-01-27T02:37:56;73.78;;;37.67;;
35646;SDS011;28680;45.642;13.756;2024-01-27T02:40:22;71.05;;;36.10;;
35646;SDS011;28680;45.642;13.756;2024-01-27T02:42:48;64.30;;;34.95;;
35646;SDS011;28680;45.642;13.756;2024-01-27T02:45:14;70.00;;;36.80;;
35646;SDS011;28680;45.642;13.756;2024-01-27T02:47:39;76.97;;;36.53;;
35646;SDS011;28680;45.642;13.756;2024-01-27T02:50:05;71.72;;;35.78;;
35646;SDS011;28680;45.642;13.756;2024-01-27T02:52:33;66.28;;;33.78;;
35646;SDS011;28680;45.642;13.756;2024-01-27T02:54:59;58.65;;;31.90;;
35646;SDS011;28680;45.642;13.756;2024-01-27T02:57:25;65.70;;;34.40;;
35646;SDS011;28680;45.642;13.756;2024-01-27T02:59:50;63.90;;;33.78;;
35646;SDS011;28680;45.642;13.756;2024-01-27T03:02:16;70.13;;;35.22;;
35646;SDS011;28680;45.642;13.756;2024-01-27T03:04:42;69.03;;;35.38;;
35646;SDS011;28680;45.642;13.756;2024-01-27T03:07:08;67.55;;;35.03;;
35646;SDS011;28680;45.642;13.756;2024-01-27T03:09:33;68.45;;;36.28;;
35646;SDS011;28680;45.642;13.756;2024-01-27T03:11:59;71.45;;;33.67;;
35646;SDS011;28680;45.642;13.756;2024-01-27T03:14:25;65.25;;;34.47;;
35646;SDS011;28680;45.642;13.756;2024-01-27T03:16:51;66.78;;;35.17;;
35646;SDS011;28680;45.642;13.756;2024-01-27T03:19:17;71.55;;;36.30;;
35646;SDS011;28680;45.642;13.756;2024-01-27T03:21:43;67.68;;;35.13;;
35646;SDS011;28680;45.642;13.756;2024-01-27T03:24:09;70.65;;;35.78;;
35646;SDS011;28680;45.642;13.756;2024-01-27T03:26:35;74.13;;;35.80;;
35646;SDS011;28680;45.642;13.756;2024-01-27T03:29:00;66.88;;;35.75;;
35646;SDS011;28680;45.642;13.756;2024-01-27T03:31:32;72.00;;;36.72;;
35646;SDS011;28680;45.642;13.756;2024-01-27T03:34:02;71.07;;;37.20;;
35646;SDS011;28680;45.642;13.756;2024-01-27T03:36:28;73.05;;;38.20;;
35646;SDS011;28680;45.642;13.756;2024-01-27T03:38:55;74.07;;;37.90;;
35646;SDS011;28680;45.642;13.756;2024-01-27T03:41:22;65.93;;;34.38;;
35646;SDS011;28680;45.642;13.756;2024-01-27T03:43:47;57.67;;;31.17;;
35646;SDS011;28680;45.642;13.756;2024-01-27T03:46:13;60.40;;;30.50;;
35646;SDS011;28680;45.642;13.756;2024-01-27T03:48:39;53.30;;;28.05;;
35646;SDS011;28680;45.642;13.756;2024-01-27T03:51:05;55.00;;;27.83;;
35646;SDS011;28680;45.642;13.756;2024-01-27T03:53:31;54.03;;;28.60;;
35646;SDS011;28680;45.642;13.756;2024-01-27T03:55:57;57.25;;;29.25;;
35646;SDS011;28680;45.642;13.756;2024-01-27T03:58:29;55.63;;;29.02;;
35646;SDS011;28680;45.642;13.756;2024-01-27T04:00:56;62.25;;;31.88;;
35646;SDS011;28680;45.642;13.756;2024-01-27T04:03:22;62.55;;;31.75;;
35646;SDS011;28680;45.642;13.756;2024-01-27T04:05:48;56.85;;;30.63;;
35646;SDS011;28680;45.642;13.756;2024-01-27T04:08:14;46.05;;;25.60;;
35646;SDS011;28680;45.642;13.756;2024-01-27T04:10:40;59.78;;;28.45;;
35646;SDS011;28680;45.642;13.756;2024-01-27T04:13:06;50.88;;;26.50;;
35646;SDS011;28680;45.642;13.756;2024-01-27T04:15:34;47.72;;;23.02;;
35646;SDS011;28680;45.642;13.756;2024-01-27T04:18:06;40.22;;;21.13;;
35646;SDS011;28680;45.642;13.756;2024-01-27T04:20:36;40.85;;;21.67;;
35646;SDS011;28680;45.642;13.756;2024-01-27T04:23:03;39.53;;;21.25;;
35646;SDS011;28680;45.642;13.756;2024-01-27T04:25:29;42.72;;;22.35;;
35646;SDS011;28680;45.642;13.756;2024-01-27T04:27:55;43.55;;;23.15;;
35646;SDS011;28680;45.642;13.756;2024-01-27T04:30:21;44.78;;;23.48;;
35646;SDS011;28680;45.642;13.756;2024-01-27T04:32:47;47.22;;;23.90;;
35646;SDS011;28680;45.642;13.756;2024-01-27T04:35:14;52.67;;;25.80;;
35646;SDS011;28680;45.642;13.756;2024-01-27T04:37:40;48.42;;;26.17;;
35646;SDS011;28680;45.642;13.756;2024-01-27T04:40:06;51.60;;;25.38;;
35646;SDS011;28680;45.642;13.756;2024-01-27T04:42:37;60.85;;;31.52;;
35646;SDS011;28680;45.642;13.756;2024-01-27T04:45:04;58.03;;;29.58;;
35646;SDS011;28680;45.642;13.756;2024-01-27T04:47:30;63.72;;;31.48;;
35646;SDS011;28680;45.642;13.756;2024-01-27T04:49:56;60.58;;;32.45;;
35646;SDS011;28680;45.642;13.756;2024-01-27T04:52:25;64.85;;;33.50;;
35646;SDS011;28680;45.642;13.756;2024-01-27T04:54:51;58.97;;;31.10;;
35646;SDS011;28680;45.642;13.756;2024-01-27T04:57:17;62.50;;;31.23;;
35646;SDS011;28680;45.642;13.756;2024-01-27T04:59:43;62.83;;;30.75;;
35646;SDS011;28680;45.642;13.756;2024-01-27T05:02:08;55.65;;;29.60;;
35646;SDS011;28680;45.642;13.756;2024-01-27T05:04:34;61.10;;;31.25;;
35646;SDS011;28680;45.642;13.756;2024-01-27T05:07:02;65.03;;;31.88;;
35646;SDS011;28680;45.642;13.756;2024-01-27T05:09:27;60.08;;;31.90;;
35646;SDS011;28680;45.642;13.756;2024-01-27T05:11:53;61.60;;;30.48;;
35646;SDS011;28680;45.642;13.756;2024-01-27T05:14:19;66.93;;;34.35;;
35646;SDS011;28680;45.642;13.756;2024-01-27T05:16:45;57.90;;;32.05;;
35646;SDS011;28680;45.642;13.756;2024-01-27T05:19:11;67.70;;;34.97;;
35646;SDS011;28680;45.642;13.756;2024-01-27T05:21:37;66.68;;;36.35;;
35646;SDS011;28680;45.642;13.756;2024-01-27T05:24:04;74.15;;;37.88;;
35646;SDS011;28680;45.642;13.756;2024-01-27T05:26:30;73.22;;;38.15;;
35646;SDS011;28680;45.642;13.756;2024-01-27T05:28:55;72.20;;;37.08;;
35646;SDS011;28680;45.642;13.756;2024-01-27T05:31:21;70.32;;;35.72;;
35646;SDS011;28680;45.642;13.756;2024-01-27T05:33:47;79.03;;;39.45;;
35646;SDS011;28680;45.642;13.756;2024-01-27T05:36:13;59.50;;;29.67;;
35646;SDS011;28680;45.642;13.756;2024-01-27T05:38:39;53.75;;;26.38;;
35646;SDS011;28680;45.642;13.756;2024-01-27T05:41:04;47.33;;;25.13;;
35646;SDS011;28680;45.642;13.756;2024-01-27T05:43:30;43.47;;;21.38;;
35646;SDS011;28680;45.642;13.756;2024-01-27T05:45:56;40.25;;;21.83;;
35646;SDS011;28680;45.642;13.756;2024-01-27T05:48:22;39.78;;;20.27;;
35646;SDS011;28680;45.642;13.756;2024-01-27T05:50:57;36.38;;;20.42;;
35646;SDS011;28680;45.642;13.756;2024-01-27T05:53:24;41.88;;;21.38;;
35646;SDS011;28680;45.642;13.756;2024-01-27T05:55:51;41.95;;;21.35;;
35646;SDS011;28680;45.642;13.756;2024-01-27T05:58:17;44.22;;;21.88;;
35646;SDS011;28680;45.642;13.756;2024-01-27T06:00:46;39.35;;;20.83;;
35646;SDS011;28680;45.642;13.756;2024-01-27T06:03:12;39.50;;;22.27;;
35646;SDS011;28680;45.642;13.756;2024-01-27T06:05:38;35.95;;;20.73;;
35646;SDS011;28680;45.642;13.756;2024-01-27T06:08:04;41.38;;;22.05;;
35646;SDS011;28680;45.642;13.756;2024-01-27T06:10:31;38.03;;;23.17;;
35646;SDS011;28680;45.642;13.756;2024-01-27T06:12:57;42.85;;;24.70;;
35646;SDS011;28680;45.642;13.756;2024-01-27T06:15:22;46.05;;;25.58;;
35646;SDS011;28680;45.642;13.756;2024-01-27T06:17:48;46.80;;;25.05;;
35646;SDS011;28680;45.642;13.756;2024-01-27T06:20:14;41.80;;;22.88;;
35646;SDS011;28680;45.642;13.756;2024-01-27T06:22:42;36.97;;;18.58;;
35646;SDS011;28680;45.642;13.756;2024-01-27T06:25:08;38.00;;;20.83;;
35646;SDS011;28680;45.642;13.756;2024-01-27T06:27:35;36.72;;;19.63;;
35646;SDS011;28680;45.642;13.756;2024-01-27T06:30:03;34.25;;;19.50;;
35646;SDS011;28680;45.642;13.756;2024-01-27T06:32:31;35.97;;;19.50;;
35646;SDS011;28680;45.642;13.756;2024-01-27T06:34:56;37.58;;;20.05;;
35646;SDS011;28680;45.642;13.756;2024-01-27T06:37:22;41.17;;;21.77;;
35646;SDS011;28680;45.642;13.756;2024-01-27T06:39:48;39.78;;;21.10;;
35646;SDS011;28680;45.642;13.756;2024-01-27T06:42:14;42.75;;;23.13;;
35646;SDS011;28680;45.642;13.756;2024-01-27T06:44:39;42.33;;;22.38;;
35646;SDS011;28680;45.642;13.756;2024-01-27T06:47:05;42.58;;;23.42;;
35646;SDS011;28680;45.642;13.756;2024-01-27T06:49:31;42.08;;;23.15;;
35646;SDS011;28680;45.642;13.756;2024-01-27T06:51:58;46.08;;;24.60;;
35646;SDS011;28680;45.642;13.756;2024-01-27T06:54:24;55.53;;;27.27;;
35646;SDS011;28680;45.642;13.756;2024-01-27T06:56:50;50.38;;;26.45;;
35646;SDS011;28680;45.642;13.756;2024-01-27T06:59:16;59.03;;;31.67;;
35646;SDS011;28680;45.642;13.756;2024-01-27T07:01:45;60.63;;;32.75;;
35646;SDS011;28680;45.642;13.756;2024-01-27T07:04:13;56.50;;;32.25;;
35646;SDS011;28680;45.642;13.756;2024-01-27T07:06:39;64.07;;;33.90;;
35646;SDS011;28680;45.642;13.756;2024-01-27T07:09:05;62.60;;;33.30;;
35646;SDS011;28680;45.642;13.756;2024-01-27T07:11:37;67.13;;;34.70;;
35646;SDS011;28680;45.642;13.756;2024-01-27T07:14:03;64.82;;;33.38;;
35646;SDS011;28680;45.642;13.756;2024-01-27T07:16:29;66.60;;;35.45;;
35646;SDS011;28680;45.642;13.756;2024-01-27T07:18:57;59.80;;;32.70;;
35646;SDS011;28680;45.642;13.756;2024-01-27T07:21:23;62.25;;;32.80;;
35646;SDS011;28680;45.642;13.756;2024-01-27T07:23:50;59.53;;;31.55;;
35646;SDS011;28680;45.642;13.756;2024-01-27T07:26:17;65.32;;;32.92;;
35646;SDS011;28680;45.642;13.756;2024-01-27T07:28:43;65.95;;;34.60;;
35646;SDS011;28680;45.642;13.756;2024-01-27T07:31:09;69.90;;;36.60;;
35646;SDS011;28680;45.642;13.756;2024-01-27T07:33:36;66.35;;;35.03;;
35646;SDS011;28680;45.642;13.756;2024-01-27T07:36:04;72.10;;;39.15;;
35646;SDS011;28680;45.642;13.756;2024-01-27T07:38:29;59.40;;;31.80;;
35646;SDS011;28680;45.642;13.756;2024-01-27T07:40:55;63.55;;;32.25;;
35646;SDS011;28680;45.642;13.756;2024-01-27T07:43:21;64.50;;;34.65;;
35646;SDS011;28680;45.642;13.756;2024-01-27T07:45:47;66.70;;;34.60;;
35646;SDS011;28680;45.642;13.756;2024-01-27T07:48:13;65.63;;;33.17;;
35646;SDS011;28680;45.642;13.756;2024-01-27T07:50:38;56.30;;;30.40;;
35646;SDS011;28680;45.642;13.756;2024-01-27T07:53:04;57.45;;;28.55;;
35646;SDS011;28680;45.642;13.756;2024-01-27T07:55:31;53.55;;;28.15;;
35646;SDS011;28680;45.642;13.756;2024-01-27T07:57:56;54.72;;;27.17;;
35646;SDS011;28680;45.642;13.756;2024-01-27T08:00:23;53.50;;;26.73;;
35646;SDS011;28680;45.642;13.756;2024-01-27T08:02:48;44.78;;;23.85;;
35646;SDS011;28680;45.642;13.756;2024-01-27T08:05:14;55.15;;;25.98;;
35646;SDS011;28680;45.642;13.756;2024-01-27T08:07:40;49.58;;;24.95;;
35646;SDS011;28680;45.642;13.756;2024-01-27T08:10:06;44.97;;;24.70;;
35646;SDS011;28680;45.642;13.756;2024-01-27T08:12:36;48.90;;;27.42;;
35646;SDS011;28680;45.642;13.756;2024-01-27T08:15:02;40.60;;;21.17;;
35646;SDS011;28680;45.642;13.756;2024-01-27T08:17:28;45.78;;;24.90;;
35646;SDS011;28680;45.642;13.756;2024-01-27T08:19:54;48.80;;;28.80;;
35646;SDS011;28680;45.642;13.756;2024-01-27T08:22:19;59.20;;;32.30;;
35646;SDS011;28680;45.642;13.756;2024-01-27T08:24:45;59.42;;;32.45;;
35646;SDS011;28680;45.642;13.756;2024-01-27T08:27:11;53.65;;;31.98;;
35646;SDS011;28680;45.642;13.756;2024-01-27T08:29:37;55.28;;;32.60;;
35646;SDS011;28680;45.642;13.756;2024-01-27T08:32:03;53.75;;;32.85;;
35646;SDS011;28680;45.642;13.756;2024-01-27T08:34:29;59.33;;;32.97;;
35646;SDS011;28680;45.642;13.756;2024-01-27T08:37:00;59.28;;;33.25;;
35646;SDS011;28680;45.642;13.756;2024-01-27T08:39:27;56.15;;;33.90;;
35646;SDS011;28680;45.642;13.756;2024-01-27T08:41:52;67.38;;;35.33;;
35646;SDS011;28680;45.642;13.756;2024-01-27T08:44:18;58.05;;;34.28;;
35646;SDS011;28680;45.642;13.756;2024-01-27T08:46:45;53.97;;;30.65;;
35646;SDS011;28680;45.642;13.756;2024-01-27T08:49:11;53.13;;;31.38;;
35646;SDS011;28680;45.642;13.756;2024-01-27T08:51:37;53.95;;;32.85;;
35646;SDS011;28680;45.642;13.756;2024-01-27T08:54:02;55.00;;;34.38;;
35646;SDS011;28680;45.642;13.756;2024-01-27T08:56:28;53.92;;;33.75;;
35646;SDS011;28680;45.642;13.756;2024-01-27T08:58:54;57.13;;;35.47;;
35646;SDS011;28680;45.642;13.756;2024-01-27T09:01:20;56.13;;;33.80;;
35646;SDS011;28680;45.642;13.756;2024-01-27T09:03:45;54.03;;;32.53;;
35646;SDS011;28680;45.642;13.756;2024-01-27T09:06:11;54.10;;;32.25;;
35646;SDS011;28680;45.642;13.756;2024-01-27T09:08:37;51.03;;;31.92;;
35646;SDS011;28680;45.642;13.756;2024-01-27T09:11:03;53.75;;;33.08;;
35646;SDS011;28680;45.642;13.756;2024-01-27T09:13:29;58.42;;;33.90;;
35646;SDS011;28680;45.642;13.756;2024-01-27T09:15:56;53.58;;;31.10;;
35646;SDS011;28680;45.642;13.756;2024-01-27T09:18:22;52.92;;;30.75;;
35646;SDS011;28680;45.642;13.756;2024-01-27T09:20:48;51.75;;;30.90;;
35646;SDS011;28680;45.642;13.756;2024-01-27T09:23:14;56.13;;;32.83;;
35646;SDS011;28680;45.642;13.756;2024-01-27T09:25:40;54.55;;;31.95;;
35646;SDS011;28680;45.642;13.756;2024-01-27T09:28:06;53.63;;;31.30;;
35646;SDS011;28680;45.642;13.756;2024-01-27T09:30:32;51.45;;;32.15;;
35646;SDS011;28680;45.642;13.756;2024-01-27T09:32:58;49.05;;;29.63;;
35646;SDS011;28680;45.642;13.756;2024-01-27T09:35:24;51.65;;;31.42;;
35646;SDS011;28680;45.642;13.756;2024-01-27T09:37:50;52.83;;;31.77;;
35646;SDS011;28680;45.642;13.756;2024-01-27T09:40:16;58.78;;;37.80;;
35646;SDS011;28680;45.642;13.756;2024-01-27T09:42:44;30.17;;;18.73;;
35646;SDS011;28680;45.642;13.756;2024-01-27T09:45:20;62.03;;;38.05;;
35646;SDS011;28680;45.642;13.756;2024-01-27T09:47:47;56.08;;;36.83;;
35646;SDS011;28680;45.642;13.756;2024-01-27T09:50:14;53.53;;;33.10;;
35646;SDS011;28680;45.642;13.756;2024-01-27T09:52:42;32.20;;;20.98;;
35646;SDS011;28680;45.642;13.756;2024-01-27T09:55:08;35.50;;;21.17;;
35646;SDS011;28680;45.642;13.756;2024-01-27T09:57:35;26.20;;;16.88;;
35646;SDS011;28680;45.642;13.756;2024-01-27T10:00:04;56.22;;;35.40;;
35646;SDS011;28680;45.642;13.756;2024-01-27T10:02:31;40.53;;;26.55;;
35646;SDS011;28680;45.642;13.756;2024-01-27T10:04:59;37.92;;;22.80;;
35646;SDS011;28680;45.642;13.756;2024-01-27T10:07:26;22.92;;;14.85;;
35646;SDS011;28680;45.642;13.756;2024-01-27T10:09:52;28.77;;;17.13;;
35646;SDS011;28680;45.642;13.756;2024-01-27T10:12:18;26.83;;;17.75;;
35646;SDS011;28680;45.642;13.756;2024-01-27T10:14:47;29.60;;;18.52;;
35646;SDS011;28680;45.642;13.756;2024-01-27T10:17:22;28.52;;;18.23;;
35646;SDS011;28680;45.642;13.756;2024-01-27T10:20:01;30.42;;;19.42;;
35646;SDS011;28680;45.642;13.756;2024-01-27T10:22:38;25.15;;;16.48;;
35646;SDS011;28680;45.642;13.756;2024-01-27T10:25:05;29.38;;;19.70;;
35646;SDS011;28680;45.642;13.756;2024-01-27T10:27:31;30.33;;;18.50;;
35646;SDS011;28680;45.642;13.756;2024-01-27T10:29:57;27.20;;;17.60;;
35646;SDS011;28680;45.642;13.756;2024-01-27T10:32:23;21.45;;;14.20;;
35646;SDS011;28680;45.642;13.756;2024-01-27T10:35:04;29.70;;;19.45;;
35646;SDS011;28680;45.642;13.756;2024-01-27T10:37:33;28.33;;;18.63;;
35646;SDS011;28680;45.642;13.756;2024-01-27T10:40:03;29.55;;;19.50;;
35646;SDS011;28680;45.642;13.756;2024-01-27T10:42:30;24.85;;;16.35;;
35646;SDS011;28680;45.642;13.756;2024-01-27T10:44:57;58.25;;;37.38;;
35646;SDS011;28680;45.642;13.756;2024-01-27T10:47:28;54.97;;;36.83;;
35646;SDS011;28680;45.642;13.756;2024-01-27T10:49:56;58.38;;;37.80;;
35646;SDS011;28680;45.642;13.756;2024-01-27T10:52:28;55.47;;;36.90;;
35646;SDS011;28680;45.642;13.756;2024-01-27T10:54:58;52.42;;;35.75;;
35646;SDS011;28680;45.642;13.756;2024-01-27T10:57:31;56.28;;;36.50;;
35646;SDS011;28680;45.642;13.756;2024-01-27T10:59:58;60.63;;;37.33;;
35646;SDS011;28680;45.642;13.756;2024-01-27T11:02:31;58.00;;;39.78;;
35646;SDS011;28680;45.642;13.756;2024-01-27T11:04:58;52.10;;;36.47;;
35646;SDS011;28680;45.642;13.756;2024-01-27T11:07:27;55.25;;;37.90;;
35646;SDS011;28680;45.642;13.756;2024-01-27T11:09:55;57.75;;;38.92;;
35646;SDS011;28680;45.642;13.756;2024-01-27T11:12:21;53.03;;;36.70;;
35646;SDS011;28680;45.642;13.756;2024-01-27T11:14:48;57.92;;;38.70;;
35646;SDS011;28680;45.642;13.756;2024-01-27T11:17:16;58.42;;;37.20;;
35646;SDS011;28680;45.642;13.756;2024-01-27T11:19:42;51.45;;;35.45;;
35646;SDS011;28680;45.642;13.756;2024-01-27T11:22:23;51.22;;;36.40;;
35646;SDS011;28680;45.642;13.756;2024-01-27T11:24:51;55.17;;;36.38;;
35646;SDS011;28680;45.642;13.756;2024-01-27T11:27:35;45.58;;;32.15;;
35646;SDS011;28680;45.642;13.756;2024-01-27T11:30:01;49.28;;;33.97;;
35646;SDS011;28680;45.642;13.756;2024-01-27T11:32:28;50.28;;;34.05;;
35646;SDS011;28680;45.642;13.756;2024-01-27T11:34:55;47.63;;;32.08;;
35646;SDS011;28680;45.642;13.756;2024-01-27T11:37:22;42.15;;;29.48;;
35646;SDS011;28680;45.642;13.756;2024-01-27T11:39:51;46.75;;;30.83;;
35646;SDS011;28680;45.642;13.756;2024-01-27T11:42:19;45.63;;;30.70;;
35646;SDS011;28680;45.642;13.756;2024-01-27T11:44:45;42.92;;;30.23;;
35646;SDS011;28680;45.642;13.756;2024-01-27T11:47:15;43.30;;;29.05;;
35646;SDS011;28680;45.642;13.756;2024-01-27T11:49:54;45.17;;;31.23;;
35646;SDS011;28680;45.642;13.756;2024-01-27T11:52:22;46.38;;;31.60;;
35646;SDS011;28680;45.642;13.756;2024-01-27T11:54:55;47.53;;;32.20;;
35646;SDS011;28680;45.642;13.756;2024-01-27T11:57:25;42.47;;;30.75;;
35646;SDS011;28680;45.642;13.756;2024-01-27T11:59:51;46.03;;;30.40;;
35646;SDS011;28680;45.642;13.756;2024-01-27T12:02:18;44.08;;;28.40;;
35646;SDS011;28680;45.642;13.756;2024-01-27T12:04:45;46.80;;;29.55;;
35646;SDS011;28680;45.642;13.756;2024-01-27T12:07:12;39.88;;;27.55;;
35646;SDS011;28680;45.642;13.756;2024-01-27T12:09:38;43.67;;;28.45;;
35646;SDS011;28680;45.642;13.756;2024-01-27T12:12:04;36.50;;;24.88;;
35646;SDS011;28680;45.642;13.756;2024-01-27T12:14:46;39.33;;;27.70;;
35646;SDS011;28680;45.642;13.756;2024-01-27T12:17:13;42.50;;;28.08;;
35646;SDS011;28680;45.642;13.756;2024-01-27T12:19:50;34.67;;;23.73;;
35646;SDS011;28680;45.642;13.756;2024-01-27T12:22:24;39.42;;;27.10;;
35646;SDS011;28680;45.642;13.756;2024-01-27T12:24:55;43.88;;;29.92;;
35646;SDS011;28680;45.642;13.756;2024-01-27T12:27:22;42.22;;;29.63;;
35646;SDS011;28680;45.642;13.756;2024-01-27T12:29:48;45.03;;;29.77;;
35646;SDS011;28680;45.642;13.756;2024-01-27T12:32:17;39.78;;;27.27;;
35646;SDS011;28680;45.642;13.756;2024-01-27T12:34:43;30.65;;;22.00;;
35646;SDS011;28680;45.642;13.756;2024-01-27T12:37:15;37.10;;;24.70;;
35646;SDS011;28680;45.642;13.756;2024-01-27T12:39:41;33.67;;;23.77;;
35646;SDS011;28680;45.642;13.756;2024-01-27T12:42:09;32.50;;;23.05;;
35646;SDS011;28680;45.642;13.756;2024-01-27T12:44:35;32.70;;;23.65;;
35646;SDS011;28680;45.642;13.756;2024-01-27T12:47:00;32.13;;;23.23;;
35646;SDS011;28680;45.642;13.756;2024-01-27T12:49:27;36.30;;;24.77;;
35646;SDS011;28680;45.642;13.756;2024-01-27T12:51:54;33.25;;;24.77;;
35646;SDS011;28680;45.642;13.756;2024-01-27T12:54:20;35.88;;;25.48;;
35646;SDS011;28680;45.642;13.756;2024-01-27T12:56:46;33.92;;;24.40;;
35646;SDS011;28680;45.642;13.756;2024-01-27T12:59:12;32.40;;;22.05;;
35646;SDS011;28680;45.642;13.756;2024-01-27T13:01:39;32.95;;;24.38;;
35646;SDS011;28680;45.642;13.756;2024-01-27T13:04:05;34.55;;;23.70;;
35646;SDS011;28680;45.642;13.756;2024-01-27T13:06:31;32.90;;;23.58;;
35646;SDS011;28680;45.642;13.756;2024-01-27T13:08:57;35.80;;;26.58;;
35646;SDS011;28680;45.642;13.756;2024-01-27T13:11:23;39.60;;;26.10;;
35646;SDS011;28680;45.642;13.756;2024-01-27T13:13:49;40.33;;;26.27;;
35646;SDS011;28680;45.642;13.756;2024-01-27T13:16:15;38.75;;;26.77;;
35646;SDS011;28680;45.642;13.756;2024-01-27T13:18:41;35.65;;;25.15;;
35646;SDS011;28680;45.642;13.756;2024-01-27T13:21:07;39.15;;;27.83;;
35646;SDS011;28680;45.642;13.756;2024-01-27T13:23:33;40.78;;;28.08;;
35646;SDS011;28680;45.642;13.756;2024-01-27T13:25:59;39.00;;;27.55;;
35646;SDS011;28680;45.642;13.756;2024-01-27T13:28:25;42.33;;;29.30;;
35646;SDS011;28680;45.642;13.756;2024-01-27T13:30:51;47.20;;;30.08;;
35646;SDS011;28680;45.642;13.756;2024-01-27T13:33:16;40.97;;;28.58;;
35646;SDS011;28680;45.642;13.756;2024-01-27T13:35:43;43.72;;;28.92;;
35646;SDS011;28680;45.642;13.756;2024-01-27T13:38:14;41.65;;;28.08;;
35646;SDS011;28680;45.642;13.756;2024-01-27T13:40:45;41.15;;;27.33;;
35646;SDS011;28680;45.642;13.756;2024-01-27T13:43:11;36.28;;;25.65;;
35646;SDS011;28680;45.642;13.756;2024-01-27T13:45:37;38.85;;;26.88;;
35646;SDS011;28680;45.642;13.756;2024-01-27T13:48:03;40.50;;;28.90;;
35646;SDS011;28680;45.642;13.756;2024-01-27T13:50:29;37.97;;;27.65;;
35646;SDS011;28680;45.642;13.756;2024-01-27T13:52:57;37.90;;;26.75;;
35646;SDS011;28680;45.642;13.756;2024-01-27T13:55:23;42.20;;;28.35;;
35646;SDS011;28680;45.642;13.756;2024-01-27T13:57:49;42.45;;;29.40;;
35646;SDS011;28680;45.642;13.756;2024-01-27T14:00:15;45.03;;;29.92;;
35646;SDS011;28680;45.642;13.756;2024-01-27T14:02:42;42.08;;;29.38;;
35646;SDS011;28680;45.642;13.756;2024-01-27T14:05:08;48.83;;;32.63;;
35646;SDS011;28680;45.642;13.756;2024-01-27T14:07:34;47.92;;;32.00;;